createdAt,value
2019-05-19T00:01:06.737Z,12.90
2019-05-19T00:03:37.301Z,12.90
2019-05-19T00:06:07.802Z,12.90
2019-05-19T00:08:38.397Z,12.90
2019-05-19T00:11:09.134Z,12.90
2019-05-19T00:13:40.120Z,12.90
2019-05-19T00:16:10.683Z,12.90
2019-05-19T00:18:41.344Z,12.80
2019-05-19T00:21:12.134Z,12.80
2019-05-19T00:23:44.301Z,12.80
2019-05-19T00:26:15.327Z,12.80
2019-05-19T00:28:45.848Z,12.80
2019-05-19T00:31:18.373Z,12.80
2019-05-19T00:33:48.984Z,12.80
2019-05-19T00:36:19.790Z,12.80
2019-05-19T00:38:50.386Z,12.80
2019-05-19T00:41:20.925Z,12.80
2019-05-19T00:43:51.525Z,12.80
2019-05-19T00:46:22.269Z,12.80
2019-05-19T00:48:52.881Z,12.80
2019-05-19T00:51:23.780Z,12.80
2019-05-19T00:53:55.570Z,12.80
2019-05-19T00:56:27.321Z,12.80
2019-05-19T00:59:00.239Z,12.70
2019-05-19T01:01:31.331Z,12.70
2019-05-19T01:04:02.158Z,12.70
2019-05-19T01:06:32.746Z,12.70
2019-05-19T01:09:03.912Z,12.70
2019-05-19T01:11:34.544Z,12.70
2019-05-19T01:14:05.129Z,12.60
2019-05-19T01:16:35.723Z,12.70
2019-05-19T01:19:08.032Z,12.60
2019-05-19T01:21:40.072Z,12.60
2019-05-19T01:24:10.814Z,12.60
2019-05-19T01:26:41.547Z,12.60
2019-05-19T01:29:12.167Z,12.50
2019-05-19T01:31:43.146Z,12.50
2019-05-19T01:34:13.851Z,12.50
2019-05-19T01:36:44.701Z,12.60
2019-05-19T01:39:15.275Z,12.50
2019-05-19T01:41:45.933Z,12.50
2019-05-19T01:44:18.568Z,12.50
2019-05-19T01:46:49.205Z,12.50
2019-05-19T01:49:19.916Z,12.50
2019-05-19T01:51:50.468Z,12.50
2019-05-19T01:54:21.087Z,12.40
2019-05-19T01:56:51.644Z,12.40
2019-05-19T01:59:22.288Z,12.40
2019-05-19T02:01:52.851Z,12.40
2019-05-19T02:04:23.433Z,12.40
2019-05-19T02:06:54.191Z,12.40
2019-05-19T02:09:24.775Z,12.40
2019-05-19T02:11:55.408Z,12.40
2019-05-19T02:14:25.961Z,12.30
2019-05-19T02:16:56.476Z,12.30
2019-05-19T02:19:27.125Z,12.30
2019-05-19T02:21:57.643Z,12.30
2019-05-19T02:24:28.150Z,12.30
2019-05-19T02:26:58.663Z,12.20
2019-05-19T02:29:29.219Z,12.20
2019-05-19T02:31:59.697Z,12.20
2019-05-19T02:34:30.318Z,12.20
2019-05-19T02:37:00.947Z,12.20
2019-05-19T02:39:31.713Z,12.10
2019-05-19T02:42:04.675Z,12.10
2019-05-19T02:44:36.667Z,12.00
2019-05-19T02:47:08.131Z,12.00
2019-05-19T02:49:39.565Z,12.00
2019-05-19T02:52:11.865Z,12.00
2019-05-19T02:54:42.454Z,12.00
2019-05-19T02:57:13.728Z,12.00
2019-05-19T02:59:45.868Z,12.00
2019-05-19T03:02:16.522Z,12.00
2019-05-19T03:04:47.046Z,12.00
2019-05-19T03:07:17.612Z,12.00
2019-05-19T03:09:48.106Z,12.00
2019-05-19T03:12:18.722Z,12.00
2019-05-19T03:14:49.251Z,11.90
2019-05-19T03:17:20.015Z,12.00
2019-05-19T03:19:50.508Z,12.00
2019-05-19T03:22:21.117Z,12.00
2019-05-19T03:24:51.790Z,12.00
2019-05-19T03:27:22.342Z,12.00
2019-05-19T03:29:56.752Z,12.00
2019-05-19T03:32:38.271Z,12.00
2019-05-19T03:35:08.943Z,12.00
2019-05-19T03:37:39.495Z,12.00
2019-05-19T03:40:22.494Z,12.00
2019-05-19T03:42:53.153Z,12.00
2019-05-19T03:45:24.391Z,12.00
2019-05-19T03:47:57.828Z,12.00
2019-05-19T03:50:28.278Z,11.90
2019-05-19T03:52:58.843Z,11.90
2019-05-19T03:55:29.479Z,11.80
2019-05-19T03:58:19.065Z,11.90
2019-05-19T04:00:49.730Z,11.90
2019-05-19T04:03:20.319Z,11.80
2019-05-19T04:05:51.298Z,11.80
2019-05-19T04:08:21.989Z,11.80
2019-05-19T04:10:52.625Z,11.80
2019-05-19T04:13:23.149Z,11.80
2019-05-19T04:15:53.710Z,11.80
2019-05-19T04:18:24.290Z,11.80
2019-05-19T04:20:54.844Z,11.80
2019-05-19T04:23:25.452Z,11.80
2019-05-19T04:25:56.045Z,11.80
2019-05-19T04:28:26.476Z,11.80
2019-05-19T04:30:56.997Z,11.80
2019-05-19T04:33:30.041Z,11.90
2019-05-19T04:36:00.669Z,11.90
2019-05-19T04:38:31.135Z,12.00
2019-05-19T04:41:01.712Z,12.00
2019-05-19T04:43:32.735Z,12.00
2019-05-19T04:46:03.404Z,12.10
2019-05-19T04:48:53.078Z,12.10
2019-05-19T04:51:23.621Z,12.20
2019-05-19T04:53:54.232Z,12.20
2019-05-19T04:56:24.746Z,12.20
2019-05-19T04:58:58.799Z,12.30
2019-05-19T05:01:29.327Z,12.30
2019-05-19T05:04:00.022Z,12.30
2019-05-19T05:06:30.676Z,12.30
2019-05-19T05:09:01.406Z,12.30
2019-05-19T05:11:31.988Z,12.30
2019-05-19T05:14:02.625Z,12.30
2019-05-19T05:16:33.224Z,12.30
2019-05-19T05:19:03.835Z,12.30
2019-05-19T05:21:34.361Z,12.40
2019-05-19T05:24:04.878Z,12.40
2019-05-19T05:26:35.482Z,12.40
2019-05-19T05:29:06.048Z,12.40
2019-05-19T05:31:36.596Z,12.40
2019-05-19T05:34:07.239Z,12.40
2019-05-19T05:36:37.847Z,12.40
2019-05-19T05:39:08.509Z,12.50
2019-05-19T05:41:39.183Z,12.50
2019-05-19T05:44:09.737Z,12.50
2019-05-19T05:46:42.222Z,12.60
2019-05-19T05:49:12.810Z,12.60
2019-05-19T05:51:43.582Z,12.60
2019-05-19T05:54:14.130Z,12.70
2019-05-19T05:56:44.645Z,12.70
2019-05-19T05:59:15.385Z,12.70
2019-05-19T06:01:46.098Z,12.70
2019-05-19T06:04:16.571Z,12.80
2019-05-19T06:06:47.220Z,12.80
2019-05-19T06:09:17.741Z,12.90
2019-05-19T06:11:48.346Z,12.90
2019-05-19T06:14:18.939Z,13.00
2019-05-19T06:16:49.600Z,13.00
2019-05-19T06:19:20.219Z,13.10
2019-05-19T06:21:50.927Z,13.10
2019-05-19T06:24:21.554Z,13.20
2019-05-19T06:26:52.084Z,13.20
2019-05-19T06:29:22.758Z,13.30
2019-05-19T06:31:55.647Z,13.30
2019-05-19T06:34:26.176Z,13.30
2019-05-19T06:36:56.691Z,13.40
2019-05-19T06:39:27.409Z,13.40
2019-05-19T06:41:58.055Z,13.40
2019-05-19T06:44:28.689Z,13.40
2019-05-19T06:46:59.426Z,13.40
2019-05-19T06:49:29.904Z,13.40
2019-05-19T06:52:00.414Z,13.50
2019-05-19T06:54:31.021Z,13.50
2019-05-19T06:57:01.780Z,13.50
2019-05-19T06:59:33.476Z,13.50
2019-05-19T07:02:04.043Z,13.50
2019-05-19T07:04:34.592Z,13.60
2019-05-19T07:07:05.167Z,13.60
2019-05-19T07:09:35.677Z,13.60
2019-05-19T07:12:06.427Z,13.60
2019-05-19T07:14:36.944Z,13.60
2019-05-19T07:17:07.550Z,13.70
2019-05-19T07:19:38.209Z,13.70
2019-05-19T07:22:09.130Z,13.70
2019-05-19T07:24:39.754Z,13.70
2019-05-19T07:27:10.280Z,13.70
2019-05-19T07:29:40.849Z,13.70
2019-05-19T07:32:11.360Z,13.70
2019-05-19T07:34:41.880Z,13.70
2019-05-19T07:37:12.394Z,13.70
2019-05-19T07:39:42.873Z,13.70
2019-05-19T07:42:13.800Z,13.70
2019-05-19T07:44:45.412Z,13.80
2019-05-19T07:47:16.020Z,13.80
2019-05-19T07:49:46.554Z,13.80
2019-05-19T07:52:17.081Z,13.80
2019-05-19T07:54:47.702Z,13.80
2019-05-19T07:57:18.393Z,13.80
2019-05-19T07:59:48.866Z,13.80
2019-05-19T08:02:19.957Z,13.80
2019-05-19T08:04:50.470Z,13.80
2019-05-19T08:07:21.117Z,13.80
2019-05-19T08:09:51.756Z,13.80
2019-05-19T08:12:22.327Z,13.80
2019-05-19T08:14:52.886Z,13.80
2019-05-19T08:17:25.871Z,13.80
2019-05-19T08:19:55.553Z,13.80
2019-05-19T08:22:26.129Z,13.90
2019-05-19T08:24:56.658Z,13.90
2019-05-19T08:27:27.198Z,13.90
2019-05-19T08:29:57.783Z,13.90
2019-05-19T08:32:28.534Z,13.90
2019-05-19T08:34:59.142Z,13.90
2019-05-19T08:37:29.698Z,13.90
2019-05-19T08:40:00.268Z,13.90
2019-05-19T08:42:30.766Z,13.90
2019-05-19T08:45:01.311Z,13.90
2019-05-19T08:47:31.805Z,14.00
2019-05-19T08:50:02.393Z,14.00
2019-05-19T08:52:33.218Z,14.00
2019-05-19T08:55:04.092Z,13.90
2019-05-19T08:57:34.716Z,14.00
2019-05-19T09:00:05.401Z,14.00
2019-05-19T09:02:36.031Z,14.00
2019-05-19T09:05:06.773Z,14.00
2019-05-19T09:07:37.780Z,14.00
2019-05-19T09:10:08.342Z,14.00
2019-05-19T09:12:39.202Z,14.10
2019-05-19T09:15:09.938Z,14.10
2019-05-19T09:17:40.883Z,14.10
2019-05-19T09:20:12.178Z,14.10
2019-05-19T09:22:42.777Z,14.10
2019-05-19T09:25:13.510Z,14.10
2019-05-19T09:27:44.145Z,14.20
2019-05-19T09:30:14.875Z,14.20
2019-05-19T09:32:45.458Z,14.20
2019-05-19T09:35:16.329Z,14.20
2019-05-19T09:37:47.420Z,14.20
2019-05-19T09:40:18.181Z,14.20
2019-05-19T09:42:48.732Z,14.20
2019-05-19T09:45:19.811Z,14.20
2019-05-19T09:47:50.362Z,14.20
2019-05-19T09:50:21.079Z,14.20
2019-05-19T09:52:51.617Z,14.20
2019-05-19T09:55:22.128Z,14.20
2019-05-19T09:57:52.837Z,14.20
2019-05-19T10:00:23.548Z,14.20
2019-05-19T10:02:54.139Z,14.20
2019-05-19T10:05:24.746Z,14.20
2019-05-19T10:07:55.238Z,14.10
2019-05-19T10:10:50.756Z,14.10
2019-05-19T10:13:21.282Z,14.20
2019-05-19T10:15:52.295Z,14.20
2019-05-19T10:18:22.855Z,14.20
2019-05-19T10:20:53.453Z,14.20
2019-05-19T10:23:24.427Z,14.20
2019-05-19T10:25:55.337Z,14.20
2019-05-19T10:28:25.797Z,14.20
2019-05-19T10:30:56.311Z,14.30
2019-05-19T10:33:26.883Z,14.30
2019-05-19T10:35:57.373Z,14.20
2019-05-19T10:38:27.879Z,14.20
2019-05-19T10:40:58.392Z,14.20
2019-05-19T10:43:28.935Z,14.20
2019-05-19T10:46:02.574Z,14.30
2019-05-19T10:48:33.147Z,14.30
2019-05-19T10:51:03.690Z,14.30
2019-05-19T10:53:34.245Z,14.30
2019-05-19T10:56:04.803Z,14.40
2019-05-19T10:58:35.369Z,14.40
2019-05-19T11:01:05.899Z,14.40
2019-05-19T11:03:36.378Z,14.40
2019-05-19T11:06:06.883Z,14.40
2019-05-19T11:08:37.793Z,14.40
2019-05-19T11:11:08.347Z,14.40
2019-05-19T11:13:38.936Z,14.40
2019-05-19T11:16:09.439Z,14.40
2019-05-19T11:18:40.036Z,14.40
2019-05-19T11:21:10.568Z,14.30
2019-05-19T11:23:41.123Z,14.30
2019-05-19T11:26:11.663Z,14.30
2019-05-19T11:28:42.216Z,14.30
2019-05-19T11:31:12.768Z,14.30
2019-05-19T11:33:43.193Z,14.40
2019-05-19T11:36:13.663Z,14.40
2019-05-19T11:38:44.210Z,14.40
2019-05-19T11:41:33.827Z,14.30
2019-05-19T11:44:42.841Z,14.30
2019-05-19T11:47:51.900Z,14.30
2019-05-19T11:54:15.735Z,14.30
2019-05-19T12:00:19.255Z,14.30
2019-05-19T12:03:28.283Z,14.30
2019-05-19T12:06:38.524Z,14.40
2019-05-19T12:09:13.090Z,14.40
2019-05-19T12:11:55.321Z,14.40
2019-05-19T12:14:37.176Z,14.40
2019-05-19T12:17:19.482Z,14.40
2019-05-19T12:20:02.959Z,14.40
2019-05-19T12:22:45.412Z,14.40
2019-05-19T12:25:27.335Z,14.40
2019-05-19T12:28:09.795Z,14.40
2019-05-19T12:30:52.437Z,14.40
2019-05-19T12:33:35.213Z,14.40
2019-05-19T12:36:17.664Z,14.40
2019-05-19T12:38:59.784Z,14.40
2019-05-19T12:41:42.017Z,14.40
2019-05-19T12:44:24.434Z,14.40
2019-05-19T12:47:06.867Z,14.40
2019-05-19T12:49:49.154Z,14.40
2019-05-19T12:52:31.180Z,14.40
2019-05-19T12:55:13.168Z,14.40
2019-05-19T12:57:55.742Z,14.40
2019-05-19T13:00:37.660Z,14.40
2019-05-19T13:03:20.407Z,14.40
2019-05-19T13:06:03.023Z,14.50
2019-05-19T13:08:45.428Z,14.50
2019-05-19T13:11:27.695Z,14.50
2019-05-19T13:14:10.044Z,14.50
2019-05-19T13:16:51.890Z,14.50
2019-05-19T13:19:34.835Z,14.50
2019-05-19T13:22:17.101Z,14.50
2019-05-19T13:24:59.007Z,14.50
2019-05-19T13:27:41.155Z,14.60
2019-05-19T13:30:23.721Z,14.60
2019-05-19T13:33:05.785Z,14.60
2019-05-19T13:35:48.207Z,14.60
2019-05-19T13:38:30.831Z,14.60
2019-05-19T13:41:12.923Z,14.60
2019-05-19T13:43:54.976Z,14.60
2019-05-19T13:46:37.155Z,14.60
2019-05-19T13:49:19.202Z,14.60
2019-05-19T13:52:01.125Z,14.60
2019-05-19T13:54:42.964Z,14.60
2019-05-19T13:57:25.023Z,14.50
2019-05-19T14:00:07.126Z,14.50
2019-05-19T14:02:49.744Z,14.50
2019-05-19T14:05:31.942Z,14.50
2019-05-19T14:08:14.429Z,14.50
2019-05-19T14:10:56.374Z,14.60
2019-05-19T14:13:38.532Z,14.60
2019-05-19T14:16:20.694Z,14.60
2019-05-19T14:19:02.933Z,14.60
2019-05-19T14:21:44.734Z,14.70
2019-05-19T14:24:26.783Z,14.70
2019-05-19T14:27:12.584Z,14.70
2019-05-19T14:29:53.340Z,14.70
2019-05-19T14:32:35.178Z,14.70
2019-05-19T14:35:17.345Z,14.60
2019-05-19T14:37:59.206Z,14.70
2019-05-19T14:40:41.507Z,14.90
2019-05-19T14:43:23.601Z,14.80
2019-05-19T14:46:05.820Z,14.80
2019-05-19T14:48:47.624Z,15.00
2019-05-19T14:51:29.756Z,15.10
2019-05-19T14:54:11.774Z,15.10
2019-05-19T14:56:54.315Z,15.10
2019-05-19T14:59:36.486Z,15.20
2019-05-19T15:02:20.015Z,15.30
2019-05-19T15:05:01.931Z,15.20
2019-05-19T15:07:44.055Z,15.10
2019-05-19T15:10:25.726Z,15.10
2019-05-19T15:13:08.338Z,15.00
2019-05-19T15:15:50.158Z,15.00
2019-05-19T15:18:32.185Z,14.90
2019-05-19T15:21:14.886Z,14.90
2019-05-19T15:23:57.045Z,14.90
2019-05-19T15:26:39.218Z,14.80
2019-05-19T15:29:21.730Z,14.80
2019-05-19T15:32:03.946Z,14.80
2019-05-19T15:34:45.890Z,14.80
2019-05-19T15:37:28.127Z,14.70
2019-05-19T15:40:10.682Z,14.70
2019-05-19T15:42:52.869Z,14.80
2019-05-19T15:45:34.826Z,14.80
2019-05-19T15:48:16.770Z,14.80
2019-05-19T15:50:59.085Z,14.80
2019-05-19T15:53:41.427Z,14.80
2019-05-19T15:56:23.587Z,14.70
2019-05-19T15:59:05.533Z,14.70
2019-05-19T16:01:47.412Z,14.70
2019-05-19T16:04:29.333Z,14.70
2019-05-19T16:07:11.719Z,14.70
2019-05-19T16:09:53.601Z,14.70
2019-05-19T16:12:36.152Z,14.70
2019-05-19T16:15:18.028Z,14.70
2019-05-19T16:17:59.890Z,14.70
2019-05-19T16:20:41.677Z,14.70
2019-05-19T16:23:23.971Z,14.70
2019-05-19T16:26:05.686Z,14.70
2019-05-19T16:28:47.794Z,14.70
2019-05-19T16:31:30.381Z,14.70
2019-05-19T16:34:12.747Z,14.70
2019-05-19T16:36:55.014Z,14.70
2019-05-19T16:39:36.779Z,14.70
2019-05-19T16:42:18.690Z,14.70
2019-05-19T16:45:00.376Z,14.70
2019-05-19T16:47:42.470Z,14.70
2019-05-19T16:50:24.224Z,14.70
2019-05-19T16:53:06.135Z,14.70
2019-05-19T16:55:48.190Z,14.70
2019-05-19T16:58:43.064Z,14.70
2019-05-19T17:01:14.272Z,14.70
2019-05-19T17:03:56.223Z,14.70
2019-05-19T17:06:38.210Z,14.70
2019-05-19T17:09:20.118Z,14.60
2019-05-19T17:12:01.848Z,14.60
2019-05-19T17:14:43.510Z,14.60
2019-05-19T17:17:26.068Z,14.60
2019-05-19T17:20:08.050Z,14.60
2019-05-19T17:22:50.054Z,14.50
2019-05-19T17:25:32.497Z,14.50
2019-05-19T17:28:14.518Z,14.40
2019-05-19T17:30:56.561Z,14.40
2019-05-19T17:33:38.709Z,14.40
2019-05-19T17:36:20.482Z,14.40
2019-05-19T17:39:02.762Z,14.40
2019-05-19T17:41:44.698Z,14.40
2019-05-19T17:44:28.372Z,14.40
2019-05-19T17:47:10.488Z,14.50
2019-05-19T17:49:52.730Z,14.40
2019-05-19T17:52:34.772Z,14.40
2019-05-19T17:55:17.129Z,14.40
2019-05-19T17:57:59.483Z,14.40
2019-05-19T18:00:41.720Z,14.40
2019-05-19T18:03:24.291Z,14.40
2019-05-19T18:06:06.548Z,14.40
2019-05-19T18:08:49.089Z,14.40
2019-05-19T18:11:31.427Z,14.30
2019-05-19T18:14:13.268Z,14.30
2019-05-19T18:16:55.306Z,14.30
2019-05-19T18:19:37.610Z,14.30
2019-05-19T18:22:20.047Z,14.30
2019-05-19T18:25:02.237Z,14.30
2019-05-19T18:27:44.538Z,14.30
2019-05-19T18:30:27.107Z,14.40
2019-05-19T18:33:09.239Z,14.40
2019-05-19T18:35:51.499Z,14.40
2019-05-19T18:38:33.537Z,14.30
2019-05-19T18:41:15.419Z,14.30
2019-05-19T18:43:57.696Z,14.30
2019-05-19T18:46:40.027Z,14.20
2019-05-19T18:49:21.792Z,14.20
2019-05-19T18:52:03.573Z,14.20
2019-05-19T18:54:45.428Z,14.10
2019-05-19T18:57:27.534Z,14.10
2019-05-19T19:00:09.657Z,14.10
2019-05-19T19:02:51.918Z,14.10
2019-05-19T19:05:33.983Z,14.10
2019-05-19T19:08:15.721Z,14.10
2019-05-19T19:10:57.738Z,14.10
2019-05-19T19:13:39.649Z,14.10
2019-05-19T19:16:21.636Z,14.00
2019-05-19T19:19:03.661Z,14.00
2019-05-19T19:21:46.138Z,14.00
2019-05-19T19:24:28.250Z,13.90
2019-05-19T19:27:09.958Z,13.90
2019-05-19T19:30:03.081Z,13.90
2019-05-19T19:32:36.129Z,13.90
2019-05-19T19:35:18.013Z,13.90
2019-05-19T19:38:00.520Z,13.90
2019-05-19T19:40:43.039Z,13.90
2019-05-19T19:43:25.194Z,13.90
2019-05-19T19:46:07.203Z,13.90
2019-05-19T19:48:49.314Z,13.90
2019-05-19T19:51:31.284Z,13.90
2019-05-19T19:54:13.816Z,13.90
2019-05-19T19:56:55.940Z,13.90
2019-05-19T19:59:38.316Z,13.90
2019-05-19T20:02:20.279Z,13.90
2019-05-19T20:05:02.833Z,13.90
2019-05-19T20:07:44.698Z,13.90
2019-05-19T20:10:27.457Z,13.90
2019-05-19T20:13:09.846Z,13.90
2019-05-19T20:15:51.922Z,13.90
2019-05-19T20:18:34.107Z,13.90
2019-05-19T20:21:15.800Z,13.90
2019-05-19T20:23:57.632Z,13.90
2019-05-19T20:26:39.338Z,13.90
2019-05-19T20:29:21.175Z,13.90
2019-05-19T20:32:03.235Z,13.90
2019-05-19T20:34:45.284Z,13.90
2019-05-19T20:37:27.398Z,13.80
2019-05-19T20:40:09.679Z,13.80
2019-05-19T20:42:52.683Z,13.90
2019-05-19T20:45:34.623Z,13.90
2019-05-19T20:48:16.706Z,13.90
2019-05-19T20:50:59.047Z,13.90
2019-05-19T20:53:41.642Z,13.90
2019-05-19T20:56:23.455Z,13.80
2019-05-19T20:59:06.046Z,13.70
2019-05-19T21:01:48.153Z,13.70
2019-05-19T21:04:30.316Z,13.70
2019-05-19T21:07:12.527Z,13.60
2019-05-19T21:09:54.677Z,13.60
2019-05-19T21:12:36.802Z,13.60
2019-05-19T21:15:19.147Z,13.60
2019-05-19T21:18:01.887Z,13.60
2019-05-19T21:20:43.822Z,13.50
2019-05-19T21:23:25.890Z,13.50
2019-05-19T21:26:08.612Z,13.50
2019-05-19T21:28:50.645Z,13.50
2019-05-19T21:31:32.696Z,13.40
2019-05-19T21:34:14.772Z,13.50
2019-05-19T21:36:56.814Z,13.40
2019-05-19T21:39:38.728Z,13.40
2019-05-19T21:42:20.836Z,13.40
2019-05-19T21:45:03.046Z,13.40
2019-05-19T21:47:44.994Z,13.40
2019-05-19T21:50:27.170Z,13.50
2019-05-19T21:53:09.506Z,13.40
2019-05-19T21:55:51.615Z,13.40
2019-05-19T21:58:33.646Z,13.40
2019-05-19T22:01:23.154Z,13.40
2019-05-19T22:04:00.438Z,13.40
2019-05-19T22:06:45.478Z,13.40
2019-05-19T22:09:27.106Z,13.40
2019-05-19T22:12:09.367Z,13.40
2019-05-19T22:14:51.274Z,13.40
2019-05-19T22:17:33.086Z,13.40
2019-05-19T22:20:15.320Z,13.40
2019-05-19T22:22:57.172Z,13.40
2019-05-19T22:25:39.219Z,13.40
2019-05-19T22:28:21.437Z,13.40
2019-05-19T22:31:03.657Z,13.40
2019-05-19T22:33:46.203Z,13.40
2019-05-19T22:36:28.124Z,13.40
2019-05-19T22:39:10.338Z,13.40
2019-05-19T22:41:53.056Z,13.40
2019-05-19T22:44:35.343Z,13.40
2019-05-19T22:47:17.568Z,13.40
2019-05-19T22:50:00.176Z,13.40
2019-05-19T22:52:42.098Z,13.40
2019-05-19T22:55:23.929Z,13.40
2019-05-19T22:58:05.771Z,13.40
2019-05-19T23:00:47.877Z,13.40
2019-05-19T23:03:30.463Z,13.40
2019-05-19T23:06:12.158Z,13.40
2019-05-19T23:08:54.007Z,13.40
2019-05-19T23:11:36.025Z,13.40
2019-05-19T23:14:18.638Z,13.40
2019-05-19T23:17:00.459Z,13.40
2019-05-19T23:19:42.703Z,13.30
2019-05-19T23:22:24.907Z,13.30
2019-05-19T23:25:06.836Z,13.30
2019-05-19T23:27:49.116Z,13.30
2019-05-19T23:30:31.583Z,13.30
2019-05-19T23:33:13.439Z,13.30
2019-05-19T23:35:55.623Z,13.30
2019-05-19T23:38:38.191Z,13.30
2019-05-19T23:41:20.483Z,13.20
2019-05-19T23:44:02.759Z,13.20
2019-05-19T23:46:45.097Z,13.20
2019-05-19T23:49:26.905Z,13.20
2019-05-19T23:52:08.751Z,13.20
2019-05-19T23:54:50.588Z,13.20
2019-05-19T23:57:32.538Z,13.20
